Aktualne dane pomiarowe

Uwaga, wersja testowa! Automatyczne pobieranie danych za pomocą narzędzi lub skryptów to umożliwiających jest zabronione.

Dane meteo z obszaru Polski uzyskane na podstawie depesz SYNOP pobieranych co godzinę z NWS. Najedź myszką na symbol przedstawiony w tabeli, aby uzyskać informacje co do jego znaczenia. Prosimy pamiętać, że to testowa wersja strony, która jeszcze nie jest ukończona. Stworzono również jest krótki FAQ dotyczący korzystania z tej podstrony Anomalie temperatury w chwili obecnej odniesione są do okresu referencyjnego 1951-2016. Okres ten będzie później zmieniony na 1981-2010. Kliknij ikonę aby pobrać plik CSV. Kliknij ikonę aby wygenerować mapę synoptyczną dla danego terminu.

Wybierz Datę:    

        

Śnieżka (12510)

Dane terminowe dla wybranej stacji. Kliknij datę, aby otrzymać dane z tego terminu dla wszystkich stacji.

TemperaturaZachmurzenieWiatrCiśnienieOpadyPogoda
 Data t td wb tx tn tg rh  Nt Nl Cl Cm Ch ws wd g1 g2 wx mslp ppp ch 24h 12h t ww ww w1 w2  
2019-06-30 23:00:00 21.0 1.3 11.1--- 2750.0wx-9wx---- 841.9 -0.1---------
2019-06-30 22:00:00 20.8 2.6 11.4--- 3050.0wx-9wx---- 842.2 0.6---------
2019-06-30 21:00:00 21.1 3.3 11.8--- 3150.0wx-8wx---- 842.2 0.6---------
2019-06-30 20:00:00 21.1 3.3 11.8--- 3150.0wx-wxwx9wx---- 842.0 0.2---------
2019-06-30 19:00:00 21.0 4.1 12.1--- 3350.0wx-wxwx8wx---- 841.6 -0.2---------
2019-06-30 18:00:00 21.4 3.6 12.1 22.5 16.7- 3150.0wx-wxwx9wx---- 841.6 -0.6- 0.012------
2019-06-30 17:00:00 22.3 3.4 12.4--- 2950.0wx-wxwx6wx---- 841.8 -0.3---------
2019-06-30 16:00:00 22.4 4.0 12.6--- 3050.0wx-wxwx6wx---- 841.8 -0.8---------
2019-06-30 15:00:00 21.8 4.4 12.5--- 3250.0wx-9wx---- 842.2 -0.4---------
2019-06-30 14:00:00 22.0 5.0 12.8--- 3350.0wx-7wx---- 842.1 -1.0---------
2019-06-30 13:00:00 21.9 4.0 12.4--- 3150.0wx-6wx---- 842.6 -0.8---------
2019-06-30 12:00:00 21.3 1.0 11.1--- 2650.0wx-10wx---- 842.6 -0.4- 0.06------
2019-06-30 11:00:00 20.6 0.4 10.6--- 2650.0wx-10wx---- 843.1 -0.3---------
2019-06-30 10:00:00 19.6 -1.0 9.7--- 2550.0wx-12wx---- 843.4 -0.1---------
2019-06-30 09:00:00 19.1 -0.9 9.5--- 260.1wx-13wx---- 843.0 -0.5---------
2019-06-30 08:00:00 18.0 0.1 9.3--- 3050.0wx-10wx---- 843.4 -0.3---------
2019-06-30 07:00:00 17.3 -1.9 8.3--- 2750.0wx-10wx---- 843.5 -0.2---------
2019-06-30 06:00:00 17.1 -4.2 7.6 18.8 15.8- 2350.0wx-11wx---- 843.5 -0.1- 0.012----- 15.1
2019-06-30 05:00:00 17.4 -8.7 6.6--- 1650.0wx-8wx---- 843.7 -0.3---------
2019-06-30 04:00:00 18.0 -9.9 6.6--- 140.1wx-9wx---- 843.7 -0.8---------
2019-06-30 03:00:00 18.2 -8.1 7.1--- 1650.0wx-9wx---- 843.6 -1.4---------
2019-06-30 02:00:00 17.3-10.5 6.2--- 1450.0wx-8wx---- 844.0 -1.3---------
2019-06-30 01:00:00 18.0 -2.9 8.4--- 2450.0wx-7wx---- 844.5 -1.1---------
2019-06-30 00:00:00 17.9 -9.1 6.8--- 1550.0wx-5wx---- 845.0 -0.4---------
2019-06-29 23:00:00 17.5 -7.1 7.0--- 1850.0wx-3wx---- 845.3 -0.1---------
2019-06-29 22:00:00 17.9 -7.5 7.1--- 1750.0wx-2wx---- 845.6 0.2---------
2019-06-29 21:00:00 18.1 -9.0 6.9--- 1550.0wx-3wx---- 845.4 -0.2---------
2019-06-29 20:00:00 17.6 -8.6 6.7--- 1650.0wx-5wx---- 845.4 -0.5---------
2019-06-29 19:00:00 16.2 5.2 10.2--- 4850.0wx-wx4wx---- 845.4 -0.6---------
2019-06-29 18:00:00 16.7 7.1 11.2 18.4 8.2- 5350.0wx-wx3wx---- 845.6 -0.4- 0.012------
2019-06-29 17:00:00 18.4 8.6 12.7--- 5350.0wx-wx1wx---- 845.9 -0.2---------
2019-06-29 16:00:00 17.2 8.3 12.0--- 5650.0wx-wx3wx---- 846.0 0.0---------
2019-06-29 15:00:00 16.2 8.4 11.6--- 6050.0wx-wx2wx---- 846.0 -0.1---------
2019-06-29 14:00:00 16.3 8.0 11.4--- 5850.0wx-wx4wx---- 846.1 0.2---------
2019-06-29 13:00:00 16.1 8.1 11.4--- 5950.0wx-wx2wx---- 846.0 0.1---------
2019-06-29 12:00:00 14.0 7.5 10.1--- 6550.0wxwxwxwx4wx---- 846.1 0.6- 0.06------
2019-06-29 11:00:00 13.1 7.1 9.5--- 6750.0wxwxwxwx5wx---- 845.9 0.4---------
2019-06-29 10:00:00 11.7 7.4 9.0--- 7550.0wxwxwxwx4wx---- 845.9 0.4---------
2019-06-29 09:00:00 11.4 7.7 9.1--- 7850.0wxwxwxwx3wx---- 845.5 0.3---------
2019-06-29 08:00:00 10.4 6.5 8.0--- 7750.0wxwxwxwx2wx---- 845.5 0.7---------
2019-06-29 07:00:00 9.1 4.7 6.5--- 7450.0wxwxwxwx1wx---- 845.5 0.5---------
2019-06-29 06:00:00 8.2 4.8 6.1 9.1 7.2- 7950.0wxwxwxwx2wx---- 845.2 0.2- 0.012----- 11.1
2019-06-29 05:00:00 8.0 4.8 6.0--- 8050.0wxwxwxwx4wx---- 844.8 -0.4---------
2019-06-29 04:00:00 7.8 4.9 6.0--- 8250.0wx-wx3wx---- 845.0 0.0---------
2019-06-29 03:00:00 7.4 5.9 6.4--- 9050.0wx-wx1wx---- 845.0 0.0---------
2019-06-29 02:00:00 7.4 5.7 6.3--- 8950.0wx-wx4wx---- 845.2 0.3---------
2019-06-29 01:00:00 7.6 4.5 5.7--- 8150.0wx-wx6wx---- 845.0 0.0---------
2019-06-29 00:00:00 8.0 4.6 5.9--- 7950.0wx-6wx---- 845.0 -0.3- 0.06------
1.1 ms

 

Print Friendly, PDF & Email